sensor_id;sensor_type;location;lat;lon;timestamp;pressure;altitude;pressure_sealevel;temperature;humidity
80927;BME280;70385;44.538;18.532;2023-07-13T00:01:14;99278.63;;;21.21;97.67
80927;BME280;70385;44.538;18.532;2023-07-13T00:03:41;99275.00;;;21.22;97.91
80927;BME280;70385;44.538;18.532;2023-07-13T00:06:07;99270.91;;;21.18;97.90
80927;BME280;70385;44.538;18.532;2023-07-13T00:08:34;99267.13;;;21.11;98.50
80927;BME280;70385;44.538;18.532;2023-07-13T00:11:01;99272.56;;;21.09;98.73
80927;BME280;70385;44.538;18.532;2023-07-13T00:13:28;99280.00;;;21.06;98.44
80927;BME280;70385;44.538;18.532;2023-07-13T00:15:56;99280.13;;;21.04;98.05
80927;BME280;70385;44.538;18.532;2023-07-13T00:18:22;99272.53;;;21.00;98.14
80927;BME280;70385;44.538;18.532;2023-07-13T00:20:49;99276.19;;;20.99;98.21
80927;BME280;70385;44.538;18.532;2023-07-13T00:23:16;99273.09;;;20.94;99.11
80927;BME280;70385;44.538;18.532;2023-07-13T00:25:43;99275.06;;;20.91;99.23
80927;BME280;70385;44.538;18.532;2023-07-13T00:28:09;99285.00;;;20.89;99.59
80927;BME280;70385;44.538;18.532;2023-07-13T00:30:35;99287.66;;;20.89;99.04
80927;BME280;70385;44.538;18.532;2023-07-13T00:33:01;99277.00;;;20.89;98.85
80927;BME280;70385;44.538;18.532;2023-07-13T00:35:30;99279.66;;;20.89;98.67
80927;BME280;70385;44.538;18.532;2023-07-13T00:37:58;99278.13;;;20.87;98.66
80927;BME280;70385;44.538;18.532;2023-07-13T00:40:24;99287.22;;;20.84;98.75
80927;BME280;70385;44.538;18.532;2023-07-13T00:42:52;99277.56;;;20.83;98.87
80927;BME280;70385;44.538;18.532;2023-07-13T00:48:11;99281.63;;;20.87;99.60
80927;BME280;70385;44.538;18.532;2023-07-13T00:50:40;99271.78;;;20.78;99.34
80927;BME280;70385;44.538;18.532;2023-07-13T00:53:07;99282.00;;;20.73;99.02
80927;BME280;70385;44.538;18.532;2023-07-13T00:55:35;99270.78;;;20.70;98.92
80927;BME280;70385;44.538;18.532;2023-07-13T00:58:02;99278.09;;;20.77;98.08
80927;BME280;70385;44.538;18.532;2023-07-13T01:00:34;99275.28;;;20.69;98.09
80927;BME280;70385;44.538;18.532;2023-07-13T01:03:03;99269.06;;;20.59;98.16
80927;BME280;70385;44.538;18.532;2023-07-13T01:05:33;99266.13;;;20.62;98.61
80927;BME280;70385;44.538;18.532;2023-07-13T01:08:00;99253.09;;;20.49;98.66
80927;BME280;70385;44.538;18.532;2023-07-13T01:10:28;99258.41;;;20.49;99.09
80927;BME280;70385;44.538;18.532;2023-07-13T01:12:56;99254.38;;;20.55;99.48
80927;BME280;70385;44.538;18.532;2023-07-13T01:15:35;99252.97;;;20.60;99.06
80927;BME280;70385;44.538;18.532;2023-07-13T01:18:05;99258.44;;;20.59;99.07
80927;BME280;70385;44.538;18.532;2023-07-13T01:20:37;99247.78;;;20.59;99.67
80927;BME280;70385;44.538;18.532;2023-07-13T01:23:06;99252.97;;;20.51;99.92
80927;BME280;70385;44.538;18.532;2023-07-13T01:25:34;99237.56;;;20.45;99.89
80927;BME280;70385;44.538;18.532;2023-07-13T01:28:04;99245.03;;;20.40;99.83
80927;BME280;70385;44.538;18.532;2023-07-13T01:30:31;99240.69;;;20.39;100.00
80927;BME280;70385;44.538;18.532;2023-07-13T01:33:00;99237.59;;;20.34;100.00
80927;BME280;70385;44.538;18.532;2023-07-13T01:35:28;99240.53;;;20.30;100.00
80927;BME280;70385;44.538;18.532;2023-07-13T01:37:53;99247.94;;;20.27;100.00
80927;BME280;70385;44.538;18.532;2023-07-13T01:40:20;99245.91;;;20.19;100.00
80927;BME280;70385;44.538;18.532;2023-07-13T01:42:47;99234.44;;;20.19;100.00
80927;BME280;70385;44.538;18.532;2023-07-13T01:45:13;99242.84;;;20.24;100.00
80927;BME280;70385;44.538;18.532;2023-07-13T01:47:39;99250.25;;;20.20;99.63
80927;BME280;70385;44.538;18.532;2023-07-13T01:50:07;99248.44;;;20.21;99.03
80927;BME280;70385;44.538;18.532;2023-07-13T01:52:32;99242.56;;;20.17;98.92
80927;BME280;70385;44.538;18.532;2023-07-13T01:54:58;99244.91;;;20.11;98.68
80927;BME280;70385;44.538;18.532;2023-07-13T01:57:27;99241.81;;;20.06;99.10
80927;BME280;70385;44.538;18.532;2023-07-13T01:59:54;99240.22;;;20.03;98.92
80927;BME280;70385;44.538;18.532;2023-07-13T02:02:20;99242.53;;;20.08;98.11
80927;BME280;70385;44.538;18.532;2023-07-13T02:04:50;99245.81;;;20.00;98.26
80927;BME280;70385;44.538;18.532;2023-07-13T02:07:15;99240.00;;;20.06;98.17
80927;BME280;70385;44.538;18.532;2023-07-13T02:09:43;99237.78;;;20.11;97.71
80927;BME280;70385;44.538;18.532;2023-07-13T02:12:09;99227.44;;;20.08;97.56
80927;BME280;70385;44.538;18.532;2023-07-13T02:14:36;99218.41;;;19.99;97.75
80927;BME280;70385;44.538;18.532;2023-07-13T02:17:02;99214.75;;;19.91;97.82
80927;BME280;70385;44.538;18.532;2023-07-13T02:19:30;99215.59;;;19.91;98.08
80927;BME280;70385;44.538;18.532;2023-07-13T02:21:57;99218.38;;;19.90;98.03
80927;BME280;70385;44.538;18.532;2023-07-13T02:24:22;99205.38;;;19.87;98.32
80927;BME280;70385;44.538;18.532;2023-07-13T02:26:48;99200.28;;;19.84;98.55
80927;BME280;70385;44.538;18.532;2023-07-13T02:29:15;99205.16;;;19.79;98.74
80927;BME280;70385;44.538;18.532;2023-07-13T02:31:41;99204.59;;;19.75;99.36
80927;BME280;70385;44.538;18.532;2023-07-13T02:34:06;99202.50;;;19.79;99.29
80927;BME280;70385;44.538;18.532;2023-07-13T02:36:32;99204.06;;;19.81;99.58
80927;BME280;70385;44.538;18.532;2023-07-13T02:39:01;99210.47;;;19.79;99.34
80927;BME280;70385;44.538;18.532;2023-07-13T02:41:28;99217.47;;;19.80;99.31
80927;BME280;70385;44.538;18.532;2023-07-13T02:43:54;99220.97;;;19.80;98.99
80927;BME280;70385;44.538;18.532;2023-07-13T02:46:31;99223.03;;;19.77;99.57
80927;BME280;70385;44.538;18.532;2023-07-13T02:48:57;99216.03;;;19.76;99.65
80927;BME280;70385;44.538;18.532;2023-07-13T02:51:26;99210.88;;;19.74;99.66
80927;BME280;70385;44.538;18.532;2023-07-13T02:53:53;99216.03;;;19.76;99.57
80927;BME280;70385;44.538;18.532;2023-07-13T02:56:22;99201.66;;;19.78;99.31
80927;BME280;70385;44.538;18.532;2023-07-13T02:58:50;99200.38;;;19.73;99.29
80927;BME280;70385;44.538;18.532;2023-07-13T03:01:17;99213.31;;;19.66;99.14
80927;BME280;70385;44.538;18.532;2023-07-13T03:03:49;99224.06;;;19.64;99.69
80927;BME280;70385;44.538;18.532;2023-07-13T03:06:17;99225.16;;;19.62;99.84
80927;BME280;70385;44.538;18.532;2023-07-13T03:08:48;99224.84;;;19.55;99.81
80927;BME280;70385;44.538;18.532;2023-07-13T03:11:19;99227.38;;;19.57;100.00
80927;BME280;70385;44.538;18.532;2023-07-13T03:13:50;99218.94;;;19.52;100.00
80927;BME280;70385;44.538;18.532;2023-07-13T03:16:17;99216.41;;;19.50;99.79
80927;BME280;70385;44.538;18.532;2023-07-13T03:18:47;99212.31;;;19.46;99.77
80927;BME280;70385;44.538;18.532;2023-07-13T03:21:14;99216.63;;;19.47;99.93
80927;BME280;70385;44.538;18.532;2023-07-13T03:23:39;99227.66;;;19.42;100.00
80927;BME280;70385;44.538;18.532;2023-07-13T03:26:15;99219.38;;;19.36;100.00
80927;BME280;70385;44.538;18.532;2023-07-13T03:28:42;99217.41;;;19.38;100.00
80927;BME280;70385;44.538;18.532;2023-07-13T03:31:17;99220.91;;;19.38;99.88
80927;BME280;70385;44.538;18.532;2023-07-13T03:33:44;99220.06;;;19.38;99.80
80927;BME280;70385;44.538;18.532;2023-07-13T03:36:18;99215.22;;;19.43;99.63
80927;BME280;70385;44.538;18.532;2023-07-13T03:38:51;99215.78;;;19.47;99.39
80927;BME280;70385;44.538;18.532;2023-07-13T03:41:22;99224.09;;;19.53;99.21
80927;BME280;70385;44.538;18.532;2023-07-13T03:43:50;99231.72;;;19.47;99.55
80927;BME280;70385;44.538;18.532;2023-07-13T03:46:20;99250.19;;;19.48;99.39
80927;BME280;70385;44.538;18.532;2023-07-13T03:48:47;99252.94;;;19.47;99.38
80927;BME280;70385;44.538;18.532;2023-07-13T03:51:15;99249.44;;;19.46;99.03
80927;BME280;70385;44.538;18.532;2023-07-13T03:53:43;99236.97;;;19.37;98.24
80927;BME280;70385;44.538;18.532;2023-07-13T03:56:12;99229.53;;;19.52;97.84
80927;BME280;70385;44.538;18.532;2023-07-13T03:58:43;99226.97;;;19.61;97.69
80927;BME280;70385;44.538;18.532;2023-07-13T04:01:23;99222.56;;;19.51;97.91
80927;BME280;70385;44.538;18.532;2023-07-13T04:03:51;99229.06;;;19.58;98.63
80927;BME280;70385;44.538;18.532;2023-07-13T04:06:27;99222.19;;;19.55;98.55
80927;BME280;70385;44.538;18.532;2023-07-13T04:08:57;99232.72;;;19.66;97.19
80927;BME280;70385;44.538;18.532;2023-07-13T04:11:26;99226.66;;;19.76;96.06
80927;BME280;70385;44.538;18.532;2023-07-13T04:13:56;99237.81;;;19.69;96.30
80927;BME280;70385;44.538;18.532;2023-07-13T04:16:24;99237.41;;;19.74;95.42
80927;BME280;70385;44.538;18.532;2023-07-13T04:18:51;99245.06;;;19.67;95.38
80927;BME280;70385;44.538;18.532;2023-07-13T04:21:21;99248.47;;;19.79;95.52
80927;BME280;70385;44.538;18.532;2023-07-13T04:23:47;99254.75;;;19.99;94.73
80927;BME280;70385;44.538;18.532;2023-07-13T04:26:13;99262.00;;;19.97;94.90
80927;BME280;70385;44.538;18.532;2023-07-13T04:28:38;99265.13;;;20.02;94.52
80927;BME280;70385;44.538;18.532;2023-07-13T04:31:07;99272.34;;;20.21;93.47
80927;BME280;70385;44.538;18.532;2023-07-13T04:33:34;99279.72;;;20.08;92.86
80927;BME280;70385;44.538;18.532;2023-07-13T04:36:01;99276.91;;;20.09;92.14
80927;BME280;70385;44.538;18.532;2023-07-13T04:38:29;99276.84;;;19.99;93.54
80927;BME280;70385;44.538;18.532;2023-07-13T04:40:58;99275.75;;;20.02;94.36
80927;BME280;70385;44.538;18.532;2023-07-13T04:43:25;99273.72;;;20.15;94.03
80927;BME280;70385;44.538;18.532;2023-07-13T04:45:52;99272.41;;;20.30;93.31
80927;BME280;70385;44.538;18.532;2023-07-13T04:48:18;99264.44;;;20.30;91.96
80927;BME280;70385;44.538;18.532;2023-07-13T04:50:46;99264.13;;;20.24;92.21
80927;BME280;70385;44.538;18.532;2023-07-13T04:53:12;99269.06;;;20.28;92.49
80927;BME280;70385;44.538;18.532;2023-07-13T04:55:39;99259.53;;;20.47;91.71
80927;BME280;70385;44.538;18.532;2023-07-13T04:58:07;99253.72;;;20.72;90.78
80927;BME280;70385;44.538;18.532;2023-07-13T05:00:33;99246.78;;;20.90;90.80
80927;BME280;70385;44.538;18.532;2023-07-13T05:03:00;99246.53;;;21.03;90.67
80927;BME280;70385;44.538;18.532;2023-07-13T05:05:26;99255.47;;;20.92;91.78
80927;BME280;70385;44.538;18.532;2023-07-13T05:07:54;99251.00;;;21.03;91.31
80927;BME280;70385;44.538;18.532;2023-07-13T05:10:22;99243.22;;;21.40;89.31
80927;BME280;70385;44.538;18.532;2023-07-13T05:12:49;99232.00;;;21.56;88.20
80927;BME280;70385;44.538;18.532;2023-07-13T05:15:15;99233.53;;;21.68;87.87
80927;BME280;70385;44.538;18.532;2023-07-13T05:17:43;99238.16;;;21.66;88.76
80927;BME280;70385;44.538;18.532;2023-07-13T05:20:09;99233.41;;;21.79;87.34
80927;BME280;70385;44.538;18.532;2023-07-13T05:22:36;99243.28;;;21.96;87.72
80927;BME280;70385;44.538;18.532;2023-07-13T05:25:05;99234.75;;;22.02;86.84
80927;BME280;70385;44.538;18.532;2023-07-13T05:27:33;99232.75;;;22.24;85.65
80927;BME280;70385;44.538;18.532;2023-07-13T05:30:02;99229.69;;;22.46;83.87
80927;BME280;70385;44.538;18.532;2023-07-13T05:32:29;99218.34;;;22.44;84.07
80927;BME280;70385;44.538;18.532;2023-07-13T05:34:56;99221.84;;;22.45;83.56
80927;BME280;70385;44.538;18.532;2023-07-13T05:37:23;99241.72;;;22.23;84.55
80927;BME280;70385;44.538;18.532;2023-07-13T05:39:49;99235.72;;;22.11;85.12
80927;BME280;70385;44.538;18.532;2023-07-13T05:42:15;99223.97;;;22.41;84.24
80927;BME280;70385;44.538;18.532;2023-07-13T05:44:42;99243.63;;;22.67;82.28
80927;BME280;70385;44.538;18.532;2023-07-13T05:47:08;99233.72;;;22.87;81.48
80927;BME280;70385;44.538;18.532;2023-07-13T05:49:35;99240.00;;;22.96;81.42
80927;BME280;70385;44.538;18.532;2023-07-13T05:52:04;99246.22;;;22.87;82.25
80927;BME280;70385;44.538;18.532;2023-07-13T05:54:30;99248.31;;;23.11;80.98
80927;BME280;70385;44.538;18.532;2023-07-13T05:56:56;99264.81;;;23.42;80.67
80927;BME280;70385;44.538;18.532;2023-07-13T05:59:21;99260.38;;;23.32;79.35
80927;BME280;70385;44.538;18.532;2023-07-13T06:01:47;99263.16;;;23.58;75.58
80927;BME280;70385;44.538;18.532;2023-07-13T06:04:20;99276.25;;;23.52;76.79
80927;BME280;70385;44.538;18.532;2023-07-13T06:06:46;99274.50;;;23.43;78.23
80927;BME280;70385;44.538;18.532;2023-07-13T06:09:12;99267.31;;;23.25;78.71
80927;BME280;70385;44.538;18.532;2023-07-13T06:11:37;99280.47;;;23.37;78.45
80927;BME280;70385;44.538;18.532;2023-07-13T06:14:04;99287.81;;;23.52;78.07
80927;BME280;70385;44.538;18.532;2023-07-13T06:16:30;99288.22;;;23.48;78.08
80927;BME280;70385;44.538;18.532;2023-07-13T06:18:57;99290.91;;;23.48;78.63
80927;BME280;70385;44.538;18.532;2023-07-13T06:21:24;99281.03;;;23.76;77.10
80927;BME280;70385;44.538;18.532;2023-07-13T06:23:51;99286.50;;;23.92;74.83
80927;BME280;70385;44.538;18.532;2023-07-13T06:26:19;99283.59;;;24.29;74.66
80927;BME280;70385;44.538;18.532;2023-07-13T06:28:46;99274.13;;;24.69;71.20
80927;BME280;70385;44.538;18.532;2023-07-13T06:31:13;99275.88;;;24.94;73.12
80927;BME280;70385;44.538;18.532;2023-07-13T06:33:41;99280.34;;;25.20;71.47
80927;BME280;70385;44.538;18.532;2023-07-13T06:36:09;99279.66;;;25.18;70.42
80927;BME280;70385;44.538;18.532;2023-07-13T06:38:35;99277.56;;;25.46;70.35
80927;BME280;70385;44.538;18.532;2023-07-13T06:41:01;99278.53;;;25.36;71.00
80927;BME280;70385;44.538;18.532;2023-07-13T06:43:27;99270.16;;;25.64;70.18
80927;BME280;70385;44.538;18.532;2023-07-13T06:45:55;99263.00;;;25.81;69.34
80927;BME280;70385;44.538;18.532;2023-07-13T06:48:21;99274.22;;;26.09;66.85
80927;BME280;70385;44.538;18.532;2023-07-13T06:50:48;99266.00;;;26.10;68.36
80927;BME280;70385;44.538;18.532;2023-07-13T06:53:17;99267.63;;;26.52;68.04
80927;BME280;70385;44.538;18.532;2023-07-13T06:55:46;99259.50;;;26.68;63.95
80927;BME280;70385;44.538;18.532;2023-07-13T06:58:16;99246.31;;;26.89;63.15
80927;BME280;70385;44.538;18.532;2023-07-13T07:00:42;99235.66;;;26.73;68.18
80927;BME280;70385;44.538;18.532;2023-07-13T07:03:08;99243.16;;;26.86;68.76
80927;BME280;70385;44.538;18.532;2023-07-13T07:05:34;99245.91;;;27.09;64.37
80927;BME280;70385;44.538;18.532;2023-07-13T07:08:01;99251.13;;;27.56;63.07
80927;BME280;70385;44.538;18.532;2023-07-13T07:10:29;99249.03;;;27.43;65.71
80927;BME280;70385;44.538;18.532;2023-07-13T07:12:55;99237.94;;;27.46;64.24
80927;BME280;70385;44.538;18.532;2023-07-13T07:15:25;99250.00;;;27.50;62.92
80927;BME280;70385;44.538;18.532;2023-07-13T07:17:51;99261.53;;;27.59;62.21
80927;BME280;70385;44.538;18.532;2023-07-13T07:20:18;99257.16;;;27.35;61.64
80927;BME280;70385;44.538;18.532;2023-07-13T07:22:44;99265.66;;;27.70;60.84
80927;BME280;70385;44.538;18.532;2023-07-13T07:25:10;99272.50;;;27.95;60.56
80927;BME280;70385;44.538;18.532;2023-07-13T07:27:36;99289.13;;;27.99;60.62
80927;BME280;70385;44.538;18.532;2023-07-13T07:30:02;99267.88;;;28.04;61.16
80927;BME280;70385;44.538;18.532;2023-07-13T07:32:29;99274.25;;;28.26;54.51
80927;BME280;70385;44.538;18.532;2023-07-13T07:34:57;99280.94;;;28.30;52.84
80927;BME280;70385;44.538;18.532;2023-07-13T07:37:23;99282.41;;;28.32;52.73
80927;BME280;70385;44.538;18.532;2023-07-13T07:39:50;99278.25;;;28.30;53.30
80927;BME280;70385;44.538;18.532;2023-07-13T07:42:16;99271.09;;;28.52;53.77
80927;BME280;70385;44.538;18.532;2023-07-13T07:44:42;99276.22;;;28.91;52.40
80927;BME280;70385;44.538;18.532;2023-07-13T07:47:08;99271.22;;;28.73;52.61
80927;BME280;70385;44.538;18.532;2023-07-13T07:49:36;99265.50;;;29.12;52.31
80927;BME280;70385;44.538;18.532;2023-07-13T07:52:03;99250.81;;;29.15;52.02
80927;BME280;70385;44.538;18.532;2023-07-13T07:54:30;99257.31;;;29.06;52.70
80927;BME280;70385;44.538;18.532;2023-07-13T07:56:57;99252.25;;;28.96;52.03
80927;BME280;70385;44.538;18.532;2023-07-13T07:59:22;99237.78;;;29.18;51.43
80927;BME280;70385;44.538;18.532;2023-07-13T08:01:49;99234.06;;;29.41;52.18
80927;BME280;70385;44.538;18.532;2023-07-13T08:04:16;99232.78;;;29.79;51.27
80927;BME280;70385;44.538;18.532;2023-07-13T08:06:45;99228.38;;;30.00;51.64
80927;BME280;70385;44.538;18.532;2023-07-13T08:09:14;99224.03;;;29.99;53.62
80927;BME280;70385;44.538;18.532;2023-07-13T08:11:41;99230.75;;;29.81;51.79
80927;BME280;70385;44.538;18.532;2023-07-13T08:14:07;99220.34;;;29.78;51.97
80927;BME280;70385;44.538;18.532;2023-07-13T08:16:35;99217.22;;;30.31;48.60
80927;BME280;70385;44.538;18.532;2023-07-13T08:19:01;99219.34;;;30.42;48.23
80927;BME280;70385;44.538;18.532;2023-07-13T08:21:28;99212.97;;;30.15;50.21
80927;BME280;70385;44.538;18.532;2023-07-13T08:23:53;99221.81;;;30.37;48.23
80927;BME280;70385;44.538;18.532;2023-07-13T08:26:20;99213.88;;;30.29;48.22
80927;BME280;70385;44.538;18.532;2023-07-13T08:28:45;99221.69;;;30.51;48.18
80927;BME280;70385;44.538;18.532;2023-07-13T08:31:14;99214.75;;;30.70;50.72
80927;BME280;70385;44.538;18.532;2023-07-13T08:33:42;99208.78;;;30.47;46.71
80927;BME280;70385;44.538;18.532;2023-07-13T08:36:08;99216.22;;;30.38;48.04
80927;BME280;70385;44.538;18.532;2023-07-13T08:38:34;99212.75;;;30.99;46.21
80927;BME280;70385;44.538;18.532;2023-07-13T08:41:09;99214.53;;;30.72;46.33
80927;BME280;70385;44.538;18.532;2023-07-13T08:43:37;99218.88;;;30.66;45.59
80927;BME280;70385;44.538;18.532;2023-07-13T08:46:15;99218.78;;;30.53;46.03
80927;BME280;70385;44.538;18.532;2023-07-13T08:48:49;99214.56;;;30.78;46.27
80927;BME280;70385;44.538;18.532;2023-07-13T08:51:43;99223.38;;;31.07;44.88
80927;BME280;70385;44.538;18.532;2023-07-13T08:56:56;99226.16;;;31.33;45.44
80927;BME280;70385;44.538;18.532;2023-07-13T08:59:28;99224.13;;;31.68;44.65
80927;BME280;70385;44.538;18.532;2023-07-13T09:05:22;99221.63;;;31.47;44.25
80927;BME280;70385;44.538;18.532;2023-07-13T09:10:48;99221.22;;;31.63;45.15
80927;BME280;70385;44.538;18.532;2023-07-13T09:16:23;99210.81;;;32.00;43.89
80927;BME280;70385;44.538;18.532;2023-07-13T09:18:56;99209.75;;;32.27;43.85
80927;BME280;70385;44.538;18.532;2023-07-13T09:21:41;99210.84;;;32.71;44.97
80927;BME280;70385;44.538;18.532;2023-07-13T09:24:41;99214.53;;;32.19;43.34
80927;BME280;70385;44.538;18.532;2023-07-13T09:27:17;99215.34;;;32.33;44.00
80927;BME280;70385;44.538;18.532;2023-07-13T09:29:48;99214.34;;;32.20;44.44
80927;BME280;70385;44.538;18.532;2023-07-13T09:32:18;99204.13;;;32.16;45.54
80927;BME280;70385;44.538;18.532;2023-07-13T09:34:51;99201.94;;;32.57;45.62
80927;BME280;70385;44.538;18.532;2023-07-13T09:37:20;99201.03;;;31.99;46.42
80927;BME280;70385;44.538;18.532;2023-07-13T09:39:50;99201.63;;;32.21;45.27
80927;BME280;70385;44.538;18.532;2023-07-13T09:42:20;99198.50;;;32.17;45.35
80927;BME280;70385;44.538;18.532;2023-07-13T09:47:22;99190.81;;;32.79;44.28
80927;BME280;70385;44.538;18.532;2023-07-13T09:49:55;99187.88;;;32.87;44.28
80927;BME280;70385;44.538;18.532;2023-07-13T09:52:21;99195.13;;;33.00;45.85
80927;BME280;70385;44.538;18.532;2023-07-13T09:55:00;99177.81;;;32.49;44.16
80927;BME280;70385;44.538;18.532;2023-07-13T09:58:02;99172.28;;;32.11;45.47
80927;BME280;70385;44.538;18.532;2023-07-13T10:01:03;99169.97;;;32.79;44.31
80927;BME280;70385;44.538;18.532;2023-07-13T10:03:40;99170.59;;;33.19;42.71
80927;BME280;70385;44.538;18.532;2023-07-13T10:06:31;99168.00;;;33.38;43.36
80927;BME280;70385;44.538;18.532;2023-07-13T10:09:21;99165.28;;;33.31;42.95
80927;BME280;70385;44.538;18.532;2023-07-13T10:23:27;99172.66;;;33.24;41.87
80927;BME280;70385;44.538;18.532;2023-07-13T10:26:29;99170.13;;;33.54;41.74
80927;BME280;70385;44.538;18.532;2023-07-13T10:29:21;99162.50;;;33.69;40.53
80927;BME280;70385;44.538;18.532;2023-07-13T10:32:25;99164.34;;;34.19;40.05
80927;BME280;70385;44.538;18.532;2023-07-13T10:35:16;99157.53;;;34.09;39.73
80927;BME280;70385;44.538;18.532;2023-07-13T10:45:49;99146.06;;;33.39;41.46
80927;BME280;70385;44.538;18.532;2023-07-13T10:52:52;99150.16;;;34.53;39.58
80927;BME280;70385;44.538;18.532;2023-07-13T10:56:04;99142.25;;;34.82;38.25
80927;BME280;70385;44.538;18.532;2023-07-13T10:58:46;99139.22;;;35.32;37.24
80927;BME280;70385;44.538;18.532;2023-07-13T11:01:16;99132.81;;;35.14;36.75
80927;BME280;70385;44.538;18.532;2023-07-13T11:03:55;99129.44;;;35.01;38.13
80927;BME280;70385;44.538;18.532;2023-07-13T11:06:39;99131.16;;;34.17;39.97
80927;BME280;70385;44.538;18.532;2023-07-13T11:09:41;99120.59;;;33.84;40.33
80927;BME280;70385;44.538;18.532;2023-07-13T11:12:49;99112.63;;;34.62;38.65
80927;BME280;70385;44.538;18.532;2023-07-13T11:15:30;99115.09;;;34.63;38.03
80927;BME280;70385;44.538;18.532;2023-07-13T11:18:02;99108.16;;;34.97;37.04
80927;BME280;70385;44.538;18.532;2023-07-13T11:20:37;99110.63;;;35.41;36.45
80927;BME280;70385;44.538;18.532;2023-07-13T11:25:55;99097.16;;;34.92;39.18
80927;BME280;70385;44.538;18.532;2023-07-13T11:28:27;99100.31;;;35.66;37.01
80927;BME280;70385;44.538;18.532;2023-07-13T11:36:15;99081.53;;;36.40;34.85
80927;BME280;70385;44.538;18.532;2023-07-13T11:38:56;99093.59;;;36.44;35.86
80927;BME280;70385;44.538;18.532;2023-07-13T11:41:28;99093.97;;;35.07;36.71
80927;BME280;70385;44.538;18.532;2023-07-13T11:44:19;99106.75;;;33.92;40.78
80927;BME280;70385;44.538;18.532;2023-07-13T11:46:57;99105.66;;;34.18;39.52
80927;BME280;70385;44.538;18.532;2023-07-13T11:49:31;99105.69;;;34.96;39.64
80927;BME280;70385;44.538;18.532;2023-07-13T11:51:58;99116.34;;;35.09;38.38
80927;BME280;70385;44.538;18.532;2023-07-13T11:54:41;99132.75;;;34.91;36.01
80927;BME280;70385;44.538;18.532;2023-07-13T11:59:46;99136.00;;;35.88;35.26
80927;BME280;70385;44.538;18.532;2023-07-13T12:02:18;99126.69;;;36.24;36.15
80927;BME280;70385;44.538;18.532;2023-07-13T12:04:53;99120.47;;;35.53;36.13
80927;BME280;70385;44.538;18.532;2023-07-13T12:07:30;99132.53;;;35.04;36.57
80927;BME280;70385;44.538;18.532;2023-07-13T12:10:19;99138.69;;;34.81;37.30
80927;BME280;70385;44.538;18.532;2023-07-13T12:15:40;99134.41;;;34.92;40.83
80927;BME280;70385;44.538;18.532;2023-07-13T12:18:20;99129.63;;;34.21;41.23
80927;BME280;70385;44.538;18.532;2023-07-13T12:20:47;99125.53;;;34.30;41.73
80927;BME280;70385;44.538;18.532;2023-07-13T12:23:44;99142.69;;;34.49;42.14
80927;BME280;70385;44.538;18.532;2023-07-13T12:26:33;99146.84;;;34.81;41.50
80927;BME280;70385;44.538;18.532;2023-07-13T12:29:16;99146.41;;;34.36;41.73
80927;BME280;70385;44.538;18.532;2023-07-13T12:31:46;99153.19;;;34.45;42.80
80927;BME280;70385;44.538;18.532;2023-07-13T12:34:23;99155.34;;;35.03;42.10
80927;BME280;70385;44.538;18.532;2023-07-13T12:37:15;99154.03;;;34.94;42.79
80927;BME280;70385;44.538;18.532;2023-07-13T12:43:35;99143.09;;;34.64;42.15
80927;BME280;70385;44.538;18.532;2023-07-13T13:00:35;99152.81;;;33.80;45.11
80927;BME280;70385;44.538;18.532;2023-07-13T13:07:24;99152.53;;;33.63;45.17
80927;BME280;70385;44.538;18.532;2023-07-13T13:09:51;99172.00;;;34.03;44.77
80927;BME280;70385;44.538;18.532;2023-07-13T13:12:27;99194.56;;;33.79;45.50
80927;BME280;70385;44.538;18.532;2023-07-13T13:15:03;99184.25;;;33.31;46.51
80927;BME280;70385;44.538;18.532;2023-07-13T13:17:37;99180.69;;;33.94;44.93
80927;BME280;70385;44.538;18.532;2023-07-13T13:23:35;99168.41;;;33.35;45.48
80927;BME280;70385;44.538;18.532;2023-07-13T13:26:02;99177.84;;;33.26;46.11
80927;BME280;70385;44.538;18.532;2023-07-13T13:28:29;99168.06;;;33.56;45.85
80927;BME280;70385;44.538;18.532;2023-07-13T13:30:54;99165.50;;;33.61;45.99
80927;BME280;70385;44.538;18.532;2023-07-13T13:33:21;99151.19;;;33.16;47.08
80927;BME280;70385;44.538;18.532;2023-07-13T13:36:02;99150.44;;;33.09;47.03
80927;BME280;70385;44.538;18.532;2023-07-13T13:38:47;99143.81;;;33.36;46.50
80927;BME280;70385;44.538;18.532;2023-07-13T13:41:15;99140.81;;;33.44;45.87
80927;BME280;70385;44.538;18.532;2023-07-13T13:43:52;99126.13;;;34.50;44.29
80927;BME280;70385;44.538;18.532;2023-07-13T13:46:24;99143.06;;;33.97;44.78
80927;BME280;70385;44.538;18.532;2023-07-13T13:48:51;99135.56;;;33.18;46.38
80927;BME280;70385;44.538;18.532;2023-07-13T13:51:28;99137.16;;;33.57;45.60
80927;BME280;70385;44.538;18.532;2023-07-13T13:53:55;99132.50;;;34.44;43.88
80927;BME280;70385;44.538;18.532;2023-07-13T13:56:23;99130.13;;;34.29;44.58
80927;BME280;70385;44.538;18.532;2023-07-13T13:58:49;99123.81;;;34.54;44.78
80927;BME280;70385;44.538;18.532;2023-07-13T14:01:22;99117.75;;;35.00;42.63
80927;BME280;70385;44.538;18.532;2023-07-13T14:03:54;99099.91;;;33.89;44.60
80927;BME280;70385;44.538;18.532;2023-07-13T14:06:31;99094.78;;;34.36;46.37
80927;BME280;70385;44.538;18.532;2023-07-13T14:09:05;99096.38;;;35.27;41.65
80927;BME280;70385;44.538;18.532;2023-07-13T14:11:35;99097.81;;;35.29;43.04
80927;BME280;70385;44.538;18.532;2023-07-13T14:14:01;99080.28;;;35.02;42.05
80927;BME280;70385;44.538;18.532;2023-07-13T14:16:34;99075.22;;;34.76;44.62
80927;BME280;70385;44.538;18.532;2023-07-13T14:19:01;99073.84;;;35.73;41.31
80927;BME280;70385;44.538;18.532;2023-07-13T14:21:29;99061.75;;;36.44;39.92
80927;BME280;70385;44.538;18.532;2023-07-13T14:23:56;99067.75;;;36.75;39.96
80927;BME280;70385;44.538;18.532;2023-07-13T14:26:24;99071.63;;;37.07;39.06
80927;BME280;70385;44.538;18.532;2023-07-13T14:28:57;99079.63;;;37.14;40.57